createdAt,value
2022-08-28T00:01:42.639Z,102001.88
2022-08-28T00:06:46.058Z,102011.38
2022-08-28T00:11:50.531Z,102011.09
2022-08-28T00:16:54.587Z,102003.78
2022-08-28T00:21:57.613Z,102004.53
2022-08-28T00:27:19.896Z,102003.34
2022-08-28T00:32:23.758Z,102014.75
2022-08-28T00:37:26.834Z,102018.06
2022-08-28T00:42:38.169Z,102022.22
2022-08-28T00:47:41.656Z,102019.31
2022-08-28T00:52:48.146Z,102019.09
2022-08-28T00:57:55.911Z,102018.09
2022-08-28T01:02:59.446Z,102018.00
2022-08-28T01:08:05.408Z,102013.34
2022-08-28T01:13:11.671Z,102022.09
2022-08-28T01:18:17.020Z,102023.72
2022-08-28T01:23:30.224Z,102028.84
2022-08-28T01:28:34.667Z,102021.72
2022-08-28T01:33:38.003Z,102021.63
2022-08-28T01:38:49.386Z,102021.63
2022-08-28T01:43:53.929Z,102017.91
2022-08-28T01:48:56.934Z,102020.53
2022-08-28T01:53:59.948Z,102015.81
2022-08-28T01:59:09.771Z,102028.16
2022-08-28T02:04:13.409Z,102028.16
2022-08-28T02:09:16.593Z,102020.13
2022-08-28T02:14:22.421Z,102020.91
2022-08-28T02:19:26.191Z,102024.28
2022-08-28T02:24:29.516Z,102025.88
2022-08-28T02:29:34.248Z,102031.16
2022-08-28T02:34:38.060Z,102027.56
2022-08-28T02:39:42.218Z,102035.31
2022-08-28T02:44:46.668Z,102033.50
2022-08-28T02:49:49.994Z,102038.75
2022-08-28T02:54:52.901Z,102038.63
2022-08-28T02:59:58.995Z,102043.84
2022-08-28T03:05:02.019Z,102043.66
2022-08-28T03:10:07.208Z,102046.00
2022-08-28T03:15:12.528Z,102043.22
2022-08-28T03:20:15.665Z,102047.59
2022-08-28T03:25:18.877Z,102042.19
2022-08-28T03:30:23.975Z,102047.34
2022-08-28T03:35:27.264Z,102051.69
2022-08-28T03:40:30.703Z,102048.06
2022-08-28T03:45:35.303Z,102066.53
2022-08-28T03:50:41.707Z,102078.09
2022-08-28T03:55:44.797Z,102075.38
2022-08-28T04:00:50.334Z,102074.47
2022-08-28T04:05:54.135Z,102070.03
2022-08-28T04:10:59.696Z,102073.38
2022-08-28T04:16:07.886Z,102075.06
2022-08-28T04:21:13.817Z,102082.03
2022-08-28T04:26:20.011Z,102074.81
2022-08-28T04:31:31.819Z,102073.72
2022-08-28T04:36:37.822Z,102075.41
2022-08-28T04:41:40.905Z,102098.25
2022-08-28T04:46:45.321Z,102085.88
2022-08-28T04:51:51.351Z,102093.13
2022-08-28T04:56:54.421Z,102101.19
2022-08-28T05:01:58.895Z,102089.69
2022-08-28T05:07:01.966Z,102101.94
2022-08-28T05:12:06.669Z,102107.28
2022-08-28T05:17:13.793Z,102101.31
2022-08-28T05:22:16.803Z,102103.19
2022-08-28T05:27:19.966Z,102117.34
2022-08-28T05:32:24.488Z,102117.47
2022-08-28T05:37:27.771Z,102128.31
2022-08-28T05:42:31.892Z,102128.44
2022-08-28T05:47:39.893Z,102131.31
2022-08-28T05:52:43.457Z,102124.38
2022-08-28T05:57:46.535Z,102134.44
2022-08-28T06:02:50.848Z,102132.78
2022-08-28T06:07:53.868Z,102130.38
2022-08-28T06:12:56.959Z,102134.09
2022-08-28T06:18:01.316Z,102128.19
2022-08-28T06:23:04.498Z,102133.81
2022-08-28T06:28:08.804Z,102143.91
2022-08-28T06:33:16.450Z,102143.63
2022-08-28T06:38:21.310Z,102136.94
2022-08-28T06:43:26.683Z,102147.25
2022-08-28T06:48:31.769Z,102146.06
2022-08-28T06:53:37.189Z,102151.84
2022-08-28T06:58:42.506Z,102147.00
2022-08-28T07:03:56.898Z,102156.41
2022-08-28T07:08:59.947Z,102151.66
2022-08-28T07:14:04.172Z,102150.28
2022-08-28T07:19:13.235Z,102164.91
2022-08-28T07:24:17.600Z,102155.88
2022-08-28T07:29:21.788Z,102159.88
2022-08-28T07:34:27.462Z,102164.84
2022-08-28T07:39:31.099Z,102172.44
2022-08-28T07:44:54.934Z,102179.06
2022-08-28T07:50:03.097Z,102172.72
2022-08-28T07:55:09.830Z,102177.03
2022-08-28T08:00:14.168Z,102183.06
2022-08-28T08:05:18.788Z,102191.03
2022-08-28T08:10:23.527Z,102187.38
2022-08-28T08:15:30.705Z,102195.47
2022-08-28T08:20:37.783Z,102201.72
2022-08-28T08:25:40.997Z,102195.56
2022-08-28T08:31:06.056Z,102195.50
2022-08-28T08:36:12.850Z,102188.84
2022-08-28T08:41:30.371Z,102187.75
2022-08-28T08:46:36.253Z,102180.69
2022-08-28T08:51:44.932Z,102190.06
2022-08-28T08:56:50.082Z,102189.50
2022-08-28T09:02:03.102Z,102184.16
2022-08-28T09:07:16.551Z,102177.25
2022-08-28T09:12:23.055Z,102177.50
2022-08-28T09:17:47.958Z,102186.38
2022-08-28T09:22:52.544Z,102189.06
2022-08-28T09:28:11.498Z,102184.66
2022-08-28T09:33:14.482Z,102187.16
2022-08-28T09:38:20.138Z,102190.66
2022-08-28T09:43:28.482Z,102186.34
2022-08-28T09:48:35.737Z,102182.06
2022-08-28T09:53:57.692Z,102182.22
2022-08-28T09:59:06.734Z,102172.16
2022-08-28T10:04:38.081Z,102181.00
2022-08-28T10:09:51.738Z,102183.72
2022-08-28T10:15:04.361Z,102188.94
2022-08-28T10:20:15.639Z,102175.59
2022-08-28T10:25:25.062Z,102179.22
2022-08-28T10:30:32.370Z,102184.03
2022-08-28T10:35:45.716Z,102174.16
2022-08-28T10:40:56.138Z,102174.16
2022-08-28T10:46:04.657Z,102179.28
2022-08-28T10:51:14.865Z,102179.13
2022-08-28T10:56:22.412Z,102181.91
2022-08-28T11:01:30.797Z,102180.34
2022-08-28T11:06:40.989Z,102186.75
2022-08-28T11:11:46.743Z,102174.41
2022-08-28T11:16:53.012Z,102183.34
2022-08-28T11:22:01.770Z,102177.09
2022-08-28T11:27:18.007Z,102170.81
2022-08-28T11:32:38.144Z,102174.44
2022-08-28T11:37:46.247Z,102182.47
2022-08-28T11:42:49.390Z,102171.72
2022-08-28T11:47:56.790Z,102164.50
2022-08-28T11:53:30.423Z,102181.47
2022-08-28T11:58:42.205Z,102184.88
2022-08-28T12:03:57.526Z,102182.66
2022-08-28T12:09:05.161Z,102181.94
2022-08-28T12:14:09.133Z,102177.69
2022-08-28T12:19:28.799Z,102175.16
2022-08-28T12:24:31.779Z,102172.22
2022-08-28T12:29:39.527Z,102167.91
2022-08-28T12:35:01.331Z,102159.16
2022-08-28T12:40:12.862Z,102150.91
2022-08-28T12:45:21.529Z,102170.47
2022-08-28T12:50:32.275Z,102166.22
2022-08-28T12:55:35.756Z,102164.41
2022-08-28T13:00:51.575Z,102162.38
2022-08-28T13:06:05.443Z,102159.53
2022-08-28T13:11:09.180Z,102154.16
2022-08-28T13:16:34.535Z,102156.69
2022-08-28T13:21:55.457Z,102156.25
2022-08-28T13:27:04.490Z,102150.03
2022-08-28T13:32:09.582Z,102140.69
2022-08-28T13:37:44.790Z,102138.75
2022-08-28T13:42:48.524Z,102147.69
2022-08-28T13:47:51.472Z,102140.16
2022-08-28T13:52:56.277Z,102121.75
2022-08-28T13:57:59.275Z,102130.91
2022-08-28T14:03:19.849Z,102133.31
2022-08-28T14:08:24.133Z,102135.09
2022-08-28T14:13:27.918Z,102136.81
2022-08-28T14:18:30.898Z,102126.81
2022-08-28T14:23:35.337Z,102127.88
2022-08-28T14:28:38.528Z,102123.50
2022-08-28T14:33:41.797Z,102127.94
2022-08-28T14:38:46.800Z,102118.94
2022-08-28T14:43:50.716Z,102122.47
2022-08-28T14:48:53.701Z,102114.53
2022-08-28T14:53:59.765Z,102117.19
2022-08-28T14:59:04.722Z,102108.97
2022-08-28T15:04:09.862Z,102109.69
2022-08-28T15:09:15.100Z,102105.16
2022-08-28T15:14:18.361Z,102113.38
2022-08-28T15:19:23.336Z,102112.69
2022-08-28T15:24:30.999Z,102110.03
2022-08-28T15:29:34.039Z,102105.50
2022-08-28T15:34:37.070Z,102104.75
2022-08-28T15:39:59.161Z,102102.91
2022-08-28T15:45:02.304Z,102084.94
2022-08-28T15:50:06.157Z,102103.66
2022-08-28T15:55:11.279Z,102099.19
2022-08-28T16:00:15.468Z,102094.03
2022-08-28T16:05:19.116Z,102095.81
2022-08-28T16:10:25.779Z,102102.22
2022-08-28T16:15:29.372Z,102103.19
2022-08-28T16:20:32.485Z,102106.81
2022-08-28T16:25:37.277Z,102105.06
2022-08-28T16:30:43.927Z,102113.22
2022-08-28T16:35:49.468Z,102115.84
2022-08-28T16:40:59.278Z,102111.44
2022-08-28T16:46:02.747Z,102113.19
2022-08-28T16:51:05.938Z,102117.78
2022-08-28T16:56:10.822Z,102108.88
2022-08-28T17:01:14.647Z,102115.09
2022-08-28T17:06:20.294Z,102116.00
2022-08-28T17:11:25.255Z,102107.94
2022-08-28T17:16:31.488Z,102116.94
2022-08-28T17:21:52.331Z,102109.84
2022-08-28T17:26:56.631Z,102105.44
2022-08-28T17:31:59.645Z,102110.88
2022-08-28T17:37:02.871Z,102110.84
2022-08-28T17:42:07.612Z,102105.50
2022-08-28T17:47:11.970Z,102120.69
2022-08-28T17:52:14.922Z,102109.91
2022-08-28T17:57:19.206Z,102116.09
2022-08-28T18:02:22.315Z,102120.38
2022-08-28T18:07:25.412Z,102117.56
2022-08-28T18:12:30.289Z,102117.44
2022-08-28T18:17:33.255Z,102116.22
2022-08-28T18:22:36.268Z,102123.19
2022-08-28T18:27:40.606Z,102115.81
2022-08-28T18:32:43.818Z,102121.81
2022-08-28T18:37:46.873Z,102121.63
2022-08-28T18:42:55.686Z,102125.75
2022-08-28T18:47:58.793Z,102130.81
2022-08-28T18:53:01.848Z,102126.94
2022-08-28T18:58:06.312Z,102150.75
2022-08-28T19:03:10.668Z,102145.16
2022-08-28T19:08:14.490Z,102147.59
2022-08-28T19:13:19.599Z,102156.09
2022-08-28T19:18:22.704Z,102163.81
2022-08-28T19:23:25.635Z,102166.13
2022-08-28T19:28:30.249Z,102180.19
2022-08-28T19:33:33.662Z,102173.00
2022-08-28T19:38:36.680Z,102180.72
2022-08-28T19:43:44.292Z,102177.75
2022-08-28T19:48:47.905Z,102172.00
2022-08-28T19:53:56.757Z,102194.28
2022-08-28T19:59:04.185Z,102190.66
2022-08-28T20:04:09.414Z,102205.63
2022-08-28T20:09:13.251Z,102208.13
2022-08-28T20:14:19.443Z,102201.81
2022-08-28T20:19:23.425Z,102213.22
2022-08-28T20:24:26.581Z,102199.66
2022-08-28T20:29:30.984Z,102214.56
2022-08-28T20:34:34.368Z,102217.78
2022-08-28T20:39:41.467Z,102224.66
2022-08-28T20:44:45.835Z,102225.66
2022-08-28T20:49:48.743Z,102236.22
2022-08-28T20:54:51.669Z,102237.84
2022-08-28T20:59:56.029Z,102243.97
2022-08-28T21:04:59.097Z,102236.75
2022-08-28T21:10:04.919Z,102243.75
2022-08-28T21:15:14.229Z,102244.41
2022-08-28T21:20:20.492Z,102250.41
2022-08-28T21:25:25.561Z,102257.31
2022-08-28T21:30:29.994Z,102258.88
2022-08-28T21:35:33.191Z,102256.84
2022-08-28T21:40:41.066Z,102255.69
2022-08-28T21:45:45.521Z,102247.44
2022-08-28T21:50:48.478Z,102257.88
2022-08-28T21:55:56.773Z,102253.19
2022-08-28T22:01:01.707Z,102254.69
2022-08-28T22:06:04.843Z,102272.91
2022-08-28T22:11:08.181Z,102265.28
2022-08-28T22:16:13.183Z,102277.69
2022-08-28T22:21:35.675Z,102279.19
2022-08-28T22:26:38.821Z,102272.00
2022-08-28T22:31:45.443Z,102279.94
2022-08-28T22:36:49.384Z,102281.53
2022-08-28T22:41:52.363Z,102269.75
2022-08-28T22:46:57.470Z,102284.81
2022-08-28T22:52:00.342Z,102273.16
2022-08-28T22:57:03.240Z,102267.69
2022-08-28T23:02:07.815Z,102269.47
2022-08-28T23:07:11.570Z,102264.09
2022-08-28T23:12:16.553Z,102279.16
2022-08-28T23:17:20.813Z,102278.09
2022-08-28T23:22:23.697Z,102278.91
2022-08-28T23:27:42.547Z,102276.13
2022-08-28T23:32:47.392Z,102258.00
2022-08-28T23:37:52.130Z,102266.25
2022-08-28T23:42:55.590Z,102260.09
2022-08-28T23:47:59.900Z,102258.25
2022-08-28T23:53:02.842Z,102252.91
2022-08-28T23:58:07.411Z,102261.56
